METAR Data
IDs: Format: Raw Decoded Include TAF

Data at: 0750 UTC 03 Aug 2021

KCRQ 030653Z AUTO 00000KT 10SM CLR 18/16 A2997 RMK AO2 SLP146 T01830161
KCRQ 030553Z AUTO 00000KT 10SM CLR 19/16 A2997 RMK AO2 SLP147 T01890161 10239 20189 50005
KCRQ 030453Z 24005KT 10SM CLR 19/16 A2998 RMK AO2 SLP148 T01940156
KCRQ 030353Z 24003KT 10SM CLR 20/16 A2997 RMK AO2 SLP144 T02000161
KCRQ 030253Z VRB05KT 10SM CLR 22/13 A2996 RMK AO2 SLP142 T02170133 53002
KCRQ 030153Z 28003KT 10SM CLR 23/15 A2995 RMK AO2 SLP140 T02280150
KCRQ 030053Z 30006KT 10SM CLR 23/14 A2995 RMK AO2 SLP138 T02330144
KCRQ 022353Z VRB06KT 10SM CLR 24/17 A2995 RMK AO2 SLP140 T02390172 10267 20233 56010
KCRQ 022253Z VRB04KT 10SM CLR 24/17 A2996 RMK AO2 SLP142 T02440172
KCRQ 022153Z 26008KT 10SM CLR 24/16 A2997 RMK AO2 SLP147 T02390161
KCRQ 022053Z 26008KT 10SM CLR 24/14 A2998 RMK AO2 SLP150 T02390144 58013
KCRQ 021953Z 25006KT 10SM CLR 24/14 A3000 RMK AO2 SLP156 T02440144
KCRQ 021853Z VRB04KT 10SM CLR 25/15 A3001 RMK AO2 SLP158 T02500150
KCRQ 021753Z 28004KT 10SM CLR 24/16 A3002 RMK AO2 SLP163 T02440156 10244 20172 58008
KCRQ 021653Z 24004KT 10SM CLR 23/16 A3004 RMK AO2 SLP168 T02280161
KCRQ 021553Z 00000KT 10SM CLR 21/16 A3005 RMK AO2 SLP172 T02110156
KCRQ 021453Z AUTO 00000KT 10SM CLR 19/15 A3005 RMK AO2 SLP172 T01940150 51012
KCRQ 021353Z AUTO 00000KT 10SM CLR 18/15 A3004 RMK AO2 SLP169 T01780150
KCRQ 021253Z AUTO 21003KT 10SM CLR 18/14 A3003 RMK AO2 SLP166 T01780144
KCRQ 021153Z AUTO 00000KT 10SM CLR 18/14 A3001 RMK AO2 SLP160 T01780144 10189 20172 53001
KCRQ 021053Z AUTO 00000KT 10SM CLR 18/15 A3001 RMK AO2 SLP159 T01780150
KCRQ 020953Z AUTO 00000KT 10SM CLR 18/16 A3001 RMK AO2 SLP159 T01780156
KCRQ 020853Z AUTO 17004KT 10SM CLR 18/16 A3001 RMK AO2 SLP159 T01780156 58004
KCRQ 020753Z AUTO 14005KT 10SM CLR 18/16 A3002 RMK AO2 SLP161 T01780156 402440156
KCRQ 020653Z AUTO 18004KT 10SM CLR 18/16 A3002 RMK AO2 SLP163 T01830156
KCRQ 020553Z AUTO 27003KT 10SM CLR 18/16 A3002 RMK AO2 SLP163 T01830161 10239 20183 51007
KCRQ 020453Z 00000KT 10SM CLR 19/16 A3002 RMK AO2 SLP163 T01890161
KCRQ 020353Z 00000KT 10SM CLR 19/16 A3001 RMK AO2 SLP160 T01890161
KCRQ 020253Z VRB03KT 10SM CLR 20/16 A3000 RMK AO2 SLP156 T02000161 53004
KCRQ 020153Z 29006KT 10SM CLR 21/14 A2999 RMK AO2 SLP153 T02110144
KCRQ 020053Z 28007KT 10SM CLR 22/16 A2999 RMK AO2 SLP152 T02220161
KCRQ 012353Z 28008KT 250V320 10SM CLR 24/17 A2999 RMK AO2 SLP152 T02390167 10244 20206 58011
KCRQ 012253Z 28007KT 10SM CLR 24/14 A3001 RMK AO2 SLP159 T02440144
KCRQ 012153Z 26008KT 10SM CLR 23/16 A3001 RMK AO2 SLP160 T02330156
KCRQ 012053Z 29006KT 10SM CLR 23/16 A3002 RMK AO2 SLP164 T02280161 56008
KCRQ 011953Z 28006KT 10SM CLR 22/16 A3003 RMK AO2 SLP167 T02220156